createdAt,value
2023-02-07T00:00:39.444Z,102498.25
2023-02-07T00:03:41.884Z,102505.34
2023-02-07T00:06:44.112Z,102518.28
2023-02-07T00:09:46.239Z,102505.06
2023-02-07T00:12:49.970Z,102518.63
2023-02-07T00:15:52.097Z,102523.19
2023-02-07T00:18:55.050Z,102539.69
2023-02-07T00:21:57.156Z,102545.94
2023-02-07T00:24:59.303Z,102539.81
2023-02-07T00:28:01.545Z,102537.63
2023-02-07T00:31:08.973Z,102539.22
2023-02-07T00:34:11.798Z,102540.38
2023-02-07T00:37:14.001Z,102531.50
2023-02-07T00:40:18.591Z,102538.63
2023-02-07T00:43:29.373Z,102540.22
2023-02-07T00:46:33.080Z,102524.97
2023-02-07T00:49:35.319Z,102539.94
2023-02-07T00:52:37.602Z,102528.44
2023-02-07T00:55:39.934Z,102518.28
2023-02-07T00:58:42.134Z,102537.16
2023-02-07T01:01:44.388Z,102535.09
2023-02-07T01:04:46.541Z,102529.25
2023-02-07T01:07:48.715Z,102531.31
2023-02-07T01:10:50.867Z,102537.50
2023-02-07T01:13:53.154Z,102527.72
2023-02-07T01:16:57.595Z,102534.81
2023-02-07T01:20:00.013Z,102531.03
2023-02-07T01:23:02.406Z,102523.63
2023-02-07T01:26:05.714Z,102515.34
2023-02-07T01:29:08.554Z,102503.34
2023-02-07T01:32:10.801Z,102519.31
2023-02-07T01:35:12.959Z,102509.63
2023-02-07T01:38:15.923Z,102500.75
2023-02-07T01:41:18.586Z,102493.09
2023-02-07T01:44:23.764Z,102488.50
2023-02-07T01:47:26.551Z,102472.28
2023-02-07T01:50:29.320Z,102493.59
2023-02-07T01:53:33.138Z,102483.47
2023-02-07T01:56:36.169Z,102477.03
2023-02-07T01:59:40.882Z,102485.06
2023-02-07T02:02:43.593Z,102484.66
2023-02-07T02:05:50.184Z,102471.84
2023-02-07T02:08:58.035Z,102476.53
2023-02-07T02:12:18.469Z,102485.09
2023-02-07T02:15:48.599Z,102480.63
2023-02-07T02:18:59.630Z,102489.63
2023-02-07T02:22:32.734Z,102489.47
2023-02-07T02:25:53.688Z,102480.88
2023-02-07T02:29:53.495Z,102478.25
2023-02-07T02:33:02.275Z,102475.19
2023-02-07T02:36:23.257Z,102477.19
2023-02-07T02:40:12.875Z,102471.13
2023-02-07T02:43:25.204Z,102480.13
2023-02-07T02:46:34.983Z,102468.72
2023-02-07T02:49:37.871Z,102479.53
2023-02-07T02:52:50.345Z,102469.78
2023-02-07T02:56:29.825Z,102465.41
2023-02-07T02:59:41.913Z,102467.59
2023-02-07T03:02:57.729Z,102466.22
2023-02-07T03:06:18.833Z,102478.75
2023-02-07T03:09:27.006Z,102480.03
2023-02-07T03:12:52.471Z,102481.56
2023-02-07T03:16:23.643Z,102479.66
2023-02-07T03:19:33.407Z,102482.84
2023-02-07T03:22:36.054Z,102485.09
2023-02-07T03:25:39.311Z,102490.00
2023-02-07T03:28:43.931Z,102490.13
2023-02-07T03:31:49.048Z,102484.88
2023-02-07T03:34:54.427Z,102475.19
2023-02-07T03:38:03.495Z,102482.69
2023-02-07T03:41:12.008Z,102477.94
2023-02-07T03:44:15.282Z,102468.34
2023-02-07T03:47:18.819Z,102463.09
2023-02-07T03:50:21.119Z,102469.75
2023-02-07T03:53:23.307Z,102466.28
2023-02-07T03:56:25.438Z,102469.97
2023-02-07T03:59:27.943Z,102464.59
2023-02-07T04:02:30.586Z,102469.63
2023-02-07T04:05:32.718Z,102457.97
2023-02-07T04:08:35.122Z,102454.50
2023-02-07T04:11:37.252Z,102460.16
2023-02-07T04:14:39.386Z,102460.56
2023-02-07T04:17:41.729Z,102450.31
2023-02-07T04:20:44.019Z,102452.31
2023-02-07T04:23:46.164Z,102454.19
2023-02-07T04:26:48.935Z,102456.94
2023-02-07T04:29:51.262Z,102438.59
2023-02-07T04:32:55.846Z,102421.44
2023-02-07T04:35:59.935Z,102429.03
2023-02-07T04:39:02.541Z,102448.25
2023-02-07T04:42:04.909Z,102452.72
2023-02-07T04:45:07.335Z,102460.63
2023-02-07T04:48:09.491Z,102462.81
2023-02-07T04:51:12.153Z,102471.56
2023-02-07T04:54:14.330Z,102473.16
2023-02-07T04:57:16.763Z,102484.91
2023-02-07T05:00:19.528Z,102479.56
2023-02-07T05:03:21.698Z,102495.50
2023-02-07T05:06:23.815Z,102503.84
2023-02-07T05:09:26.003Z,102503.31
2023-02-07T05:12:28.213Z,102498.56
2023-02-07T05:15:30.799Z,102512.56
2023-02-07T05:18:32.982Z,102511.94
2023-02-07T05:21:35.730Z,102507.84
2023-02-07T05:24:38.794Z,102528.03
2023-02-07T05:27:41.187Z,102517.09
2023-02-07T05:30:43.413Z,102535.25
2023-02-07T05:33:45.744Z,102526.22
2023-02-07T05:36:47.895Z,102525.19
2023-02-07T05:39:50.055Z,102520.03
2023-02-07T05:42:52.442Z,102525.50
2023-02-07T05:45:54.779Z,102515.06
2023-02-07T05:48:56.957Z,102533.16
2023-02-07T05:51:59.157Z,102538.97
2023-02-07T05:55:01.427Z,102532.31
2023-02-07T05:58:03.779Z,102534.13
2023-02-07T06:01:05.948Z,102518.75
2023-02-07T06:04:08.167Z,102526.34
2023-02-07T06:07:10.334Z,102528.44
2023-02-07T06:10:13.276Z,102529.38
2023-02-07T06:13:15.596Z,102527.72
2023-02-07T06:16:17.814Z,102533.06
2023-02-07T06:19:20.084Z,102524.22
2023-02-07T06:22:22.608Z,102539.38
2023-02-07T06:25:27.748Z,102532.03
2023-02-07T06:28:29.980Z,102534.94
2023-02-07T06:31:32.234Z,102537.28
2023-02-07T06:34:34.540Z,102535.81
2023-02-07T06:37:37.119Z,102509.31
2023-02-07T06:40:44.621Z,102513.63
2023-02-07T06:43:49.574Z,102514.03
2023-02-07T06:46:51.915Z,102494.03
2023-02-07T06:49:54.657Z,102497.09
2023-02-07T06:53:01.897Z,102503.09
2023-02-07T06:56:04.372Z,102522.53
2023-02-07T06:59:06.709Z,102512.72
2023-02-07T07:02:11.124Z,102518.59
2023-02-07T07:05:15.468Z,102518.78
2023-02-07T07:08:19.110Z,102522.31
2023-02-07T07:11:22.421Z,102515.06
2023-02-07T07:14:24.630Z,102505.88
2023-02-07T07:17:31.735Z,102508.25
2023-02-07T07:20:34.118Z,102497.75
2023-02-07T07:23:36.727Z,102514.31
2023-02-07T07:26:49.431Z,102506.94
2023-02-07T07:29:52.766Z,102502.28
2023-02-07T07:32:55.614Z,102506.38
2023-02-07T07:35:59.432Z,102513.56
2023-02-07T07:39:01.700Z,102517.31
2023-02-07T07:42:05.593Z,102507.97
2023-02-07T07:45:31.106Z,102515.41
2023-02-07T07:48:36.036Z,102503.31
2023-02-07T07:51:38.312Z,102510.50
2023-02-07T07:54:40.529Z,102518.88
2023-02-07T07:57:42.733Z,102517.47
2023-02-07T08:00:45.192Z,102521.38
2023-02-07T08:03:54.911Z,102517.19
2023-02-07T08:06:57.890Z,102506.53
2023-02-07T08:10:00.315Z,102491.91
2023-02-07T08:13:03.004Z,102504.25
2023-02-07T08:16:10.967Z,102499.44
2023-02-07T08:19:13.224Z,102497.66
2023-02-07T08:22:15.848Z,102499.34
2023-02-07T08:25:22.684Z,102501.25
2023-02-07T08:28:26.273Z,102504.75
2023-02-07T08:31:28.607Z,102512.28
2023-02-07T08:34:37.131Z,102509.03
2023-02-07T08:37:39.440Z,102500.19
2023-02-07T08:40:42.043Z,102511.66
2023-02-07T08:43:46.809Z,102513.38
2023-02-07T08:46:49.212Z,102511.56
2023-02-07T08:49:51.849Z,102522.69
2023-02-07T08:52:58.074Z,102526.28
2023-02-07T08:56:04.156Z,102517.41
2023-02-07T08:59:09.262Z,102530.16
2023-02-07T09:02:12.498Z,102510.47
2023-02-07T09:05:25.363Z,102521.19
2023-02-07T09:08:27.688Z,102507.69
2023-02-07T09:11:33.288Z,102506.91
2023-02-07T09:14:35.829Z,102521.78
2023-02-07T09:17:58.281Z,102517.84
2023-02-07T09:21:02.525Z,102503.97
2023-02-07T09:24:04.870Z,102509.47
2023-02-07T09:27:08.566Z,102512.97
2023-02-07T09:30:12.175Z,102511.09
2023-02-07T09:33:15.264Z,102522.25
2023-02-07T09:36:21.586Z,102503.44
2023-02-07T09:39:24.730Z,102504.34
2023-02-07T09:42:33.935Z,102514.78
2023-02-07T09:45:41.234Z,102503.69
2023-02-07T09:48:51.432Z,102507.84
2023-02-07T09:51:57.254Z,102495.91
2023-02-07T09:55:05.542Z,102503.47
2023-02-07T09:58:41.252Z,102492.78
2023-02-07T10:01:51.685Z,102489.53
2023-02-07T10:04:59.240Z,102455.22
2023-02-07T10:08:01.434Z,102511.78
2023-02-07T10:11:19.425Z,102493.34
2023-02-07T10:14:53.870Z,102494.84
2023-02-07T10:18:34.398Z,102493.88
2023-02-07T10:21:58.118Z,102483.16
2023-02-07T10:25:16.971Z,102487.81
2023-02-07T10:28:51.656Z,102472.75
2023-02-07T10:31:55.086Z,102472.94
2023-02-07T10:35:04.653Z,102474.03
2023-02-07T10:38:22.954Z,102478.47
2023-02-07T10:41:40.197Z,102475.72
2023-02-07T10:44:43.027Z,102464.66
2023-02-07T10:47:45.951Z,102431.59
2023-02-07T10:50:48.988Z,102433.25
2023-02-07T10:54:07.588Z,102463.34
2023-02-07T10:57:17.158Z,102453.53
2023-02-07T11:08:14.734Z,102454.50
2023-02-07T11:11:40.610Z,102444.75
2023-02-07T11:15:01.378Z,102454.22
2023-02-07T11:18:04.199Z,102442.84
2023-02-07T11:21:08.477Z,102444.59
2023-02-07T11:24:31.262Z,102444.59
2023-02-07T11:27:38.631Z,102435.56
2023-02-07T11:30:40.866Z,102442.38
2023-02-07T11:33:43.340Z,102429.00
2023-02-07T11:36:48.305Z,102429.44
2023-02-07T11:39:54.285Z,102423.44
2023-02-07T11:43:22.155Z,102425.44
2023-02-07T11:46:31.677Z,102425.25
2023-02-07T11:49:38.159Z,102419.06
2023-02-07T11:52:44.304Z,102407.53
2023-02-07T11:55:46.585Z,102407.78
2023-02-07T11:58:53.768Z,102395.22
2023-02-07T12:01:58.572Z,102402.28
2023-02-07T12:05:28.241Z,102401.38
2023-02-07T12:08:38.289Z,102401.25
2023-02-07T12:11:41.224Z,102398.97
2023-02-07T12:14:56.205Z,102396.69
2023-02-07T12:18:03.418Z,102389.53
2023-02-07T12:21:25.278Z,102394.97
2023-02-07T12:24:42.644Z,102383.97
2023-02-07T12:27:46.315Z,102386.66
2023-02-07T12:30:54.167Z,102390.50
2023-02-07T12:34:21.135Z,102384.00
2023-02-07T12:37:31.015Z,102389.19
2023-02-07T12:40:40.506Z,102386.34
2023-02-07T12:43:51.213Z,102375.81
2023-02-07T12:47:15.368Z,102381.63
2023-02-07T12:50:29.770Z,102370.09
2023-02-07T12:54:09.731Z,102370.94
2023-02-07T12:57:39.629Z,102368.56
2023-02-07T13:01:02.438Z,102371.03
2023-02-07T13:04:38.697Z,102372.56
2023-02-07T13:07:49.816Z,102369.19
2023-02-07T13:11:01.028Z,102361.84
2023-02-07T13:14:12.546Z,102367.03
2023-02-07T13:17:38.747Z,102371.53
2023-02-07T13:20:50.124Z,102374.88
2023-02-07T13:24:00.589Z,102372.84
2023-02-07T13:27:06.475Z,102371.38
2023-02-07T13:30:17.048Z,102369.84
2023-02-07T13:33:25.134Z,102371.66
2023-02-07T13:36:43.895Z,102376.44
2023-02-07T13:40:02.482Z,102367.06
2023-02-07T13:43:13.750Z,102354.06
2023-02-07T13:46:46.489Z,102364.75
2023-02-07T13:50:24.043Z,102352.38
2023-02-07T13:54:02.373Z,102347.69
2023-02-07T13:57:23.048Z,102357.72
2023-02-07T14:04:08.385Z,102358.00
2023-02-07T14:07:21.239Z,102347.69
2023-02-07T14:10:40.872Z,102331.47
2023-02-07T14:13:44.466Z,102351.16
2023-02-07T14:16:54.157Z,102361.00
2023-02-07T14:20:01.050Z,102353.16
2023-02-07T14:23:11.104Z,102366.00
2023-02-07T14:26:38.220Z,102372.19
2023-02-07T14:29:41.594Z,102370.53
2023-02-07T14:32:45.319Z,102369.88
2023-02-07T14:36:04.850Z,102366.34
2023-02-07T14:39:27.932Z,102366.03
2023-02-07T14:42:30.191Z,102375.72
2023-02-07T14:45:35.779Z,102372.41
2023-02-07T14:49:07.383Z,102376.72
2023-02-07T14:52:15.858Z,102370.09
2023-02-07T14:55:22.252Z,102372.22
2023-02-07T14:58:38.360Z,102375.56
2023-02-07T15:01:40.578Z,102380.59
2023-02-07T15:04:43.738Z,102382.78
2023-02-07T15:07:47.235Z,102378.13
2023-02-07T15:11:04.871Z,102377.97
2023-02-07T15:14:07.189Z,102389.53
2023-02-07T15:17:10.890Z,102379.03
2023-02-07T15:20:19.523Z,102378.91
2023-02-07T15:23:23.220Z,102369.13
2023-02-07T15:26:25.500Z,102371.13
2023-02-07T15:29:39.052Z,102392.16
2023-02-07T15:32:52.630Z,102401.34
2023-02-07T15:35:54.861Z,102407.97
2023-02-07T15:38:58.356Z,102405.69
2023-02-07T15:42:00.605Z,102402.75
2023-02-07T15:45:04.067Z,102398.66
2023-02-07T15:48:15.670Z,102401.84
2023-02-07T15:51:30.496Z,102405.38
2023-02-07T15:54:37.417Z,102419.84
2023-02-07T15:57:43.027Z,102425.06
2023-02-07T16:00:45.240Z,102421.03
2023-02-07T16:03:47.774Z,102419.34
2023-02-07T16:07:12.242Z,102424.00
2023-02-07T16:10:34.713Z,102418.22
2023-02-07T16:13:44.841Z,102417.44
2023-02-07T16:16:55.335Z,102414.03
2023-02-07T16:19:57.483Z,102418.41
2023-02-07T16:23:04.576Z,102422.78
2023-02-07T16:26:06.846Z,102412.09
2023-02-07T16:29:13.875Z,102420.47
2023-02-07T16:32:16.981Z,102416.06
2023-02-07T16:35:25.428Z,102414.81
2023-02-07T16:38:27.589Z,102407.03
2023-02-07T16:41:32.352Z,102422.16
2023-02-07T16:44:35.984Z,102409.75
2023-02-07T16:47:38.144Z,102419.66
2023-02-07T16:50:40.633Z,102411.59
2023-02-07T16:53:43.115Z,102403.78
2023-02-07T16:56:47.193Z,102409.66
2023-02-07T16:59:49.342Z,102400.44
2023-02-07T17:02:52.755Z,102411.22
2023-02-07T17:05:54.931Z,102413.19
2023-02-07T17:08:57.081Z,102411.38
2023-02-07T17:11:59.269Z,102413.47
2023-02-07T17:15:02.393Z,102425.75
2023-02-07T17:18:04.664Z,102424.38
2023-02-07T17:21:08.940Z,102436.63
2023-02-07T17:24:11.198Z,102428.81
2023-02-07T17:27:14.716Z,102424.66
2023-02-07T17:30:38.481Z,102424.50
2023-02-07T17:33:41.021Z,102428.97
2023-02-07T17:36:48.478Z,102418.78
2023-02-07T17:39:52.603Z,102442.63
2023-02-07T17:42:54.796Z,102435.53
2023-02-07T17:45:57.123Z,102441.13
2023-02-07T17:48:59.712Z,102440.41
2023-02-07T17:52:02.749Z,102444.88
2023-02-07T17:55:05.295Z,102441.94
2023-02-07T17:58:07.584Z,102442.38
2023-02-07T18:01:09.817Z,102438.56
2023-02-07T18:04:12.113Z,102447.81
2023-02-07T18:07:14.641Z,102461.06
2023-02-07T18:10:28.394Z,102467.88
2023-02-07T18:13:30.640Z,102464.66
2023-02-07T18:16:32.865Z,102472.06
2023-02-07T18:19:35.082Z,102472.19
2023-02-07T18:22:37.560Z,102469.50
2023-02-07T18:25:39.962Z,102464.03
2023-02-07T18:28:43.431Z,102453.41
2023-02-07T18:31:46.420Z,102473.22
2023-02-07T18:34:49.135Z,102460.69
2023-02-07T18:37:51.633Z,102463.03
2023-02-07T18:40:53.948Z,102470.44
2023-02-07T18:43:56.357Z,102479.94
2023-02-07T18:46:58.633Z,102474.78
2023-02-07T18:50:03.452Z,102479.19
2023-02-07T18:53:05.755Z,102478.06
2023-02-07T18:56:11.232Z,102481.84
2023-02-07T18:59:17.250Z,102485.06
2023-02-07T19:02:19.661Z,102482.19
2023-02-07T19:05:22.091Z,102482.94
2023-02-07T19:08:24.302Z,102476.16
2023-02-07T19:11:26.761Z,102483.22
2023-02-07T19:14:35.476Z,102481.84
2023-02-07T19:17:37.844Z,102473.78
2023-02-07T19:20:40.397Z,102471.91
2023-02-07T19:23:42.939Z,102467.97
2023-02-07T19:26:46.869Z,102471.63
2023-02-07T19:29:49.205Z,102470.63
2023-02-07T19:32:52.037Z,102479.75
2023-02-07T19:35:54.685Z,102469.16
2023-02-07T19:38:57.230Z,102479.81
2023-02-07T19:45:15.922Z,102482.34
2023-02-07T19:48:18.124Z,102490.81
2023-02-07T19:51:27.335Z,102486.66
2023-02-07T19:54:29.772Z,102480.94
2023-02-07T19:57:33.336Z,102485.81
2023-02-07T20:00:35.735Z,102483.69
2023-02-07T20:03:45.328Z,102478.28
2023-02-07T20:06:47.510Z,102485.63
2023-02-07T20:09:50.114Z,102495.44
2023-02-07T20:12:52.355Z,102489.69
2023-02-07T20:15:54.551Z,102498.16
2023-02-07T20:18:56.982Z,102502.94
2023-02-07T20:21:59.223Z,102500.19
2023-02-07T20:25:01.669Z,102512.81
2023-02-07T20:28:05.175Z,102499.91
2023-02-07T20:31:11.789Z,102508.69
2023-02-07T20:34:14.905Z,102511.31
2023-02-07T20:37:17.186Z,102508.25
2023-02-07T20:40:19.411Z,102514.41
2023-02-07T20:43:21.550Z,102513.69
2023-02-07T20:46:24.218Z,102511.19
2023-02-07T20:49:28.907Z,102521.81
2023-02-07T20:52:31.251Z,102526.28
2023-02-07T20:55:33.491Z,102514.56
2023-02-07T20:58:35.913Z,102523.75
2023-02-07T21:01:39.474Z,102527.47
2023-02-07T21:04:42.940Z,102520.47
2023-02-07T21:07:45.154Z,102523.69
2023-02-07T21:10:47.323Z,102532.59
2023-02-07T21:13:53.999Z,102537.19
2023-02-07T21:17:02.371Z,102530.75
2023-02-07T21:20:04.963Z,102545.53
2023-02-07T21:23:07.789Z,102553.63
2023-02-07T21:26:11.811Z,102550.94
2023-02-07T21:29:17.185Z,102550.53
2023-02-07T21:32:19.700Z,102542.75
2023-02-07T21:35:21.834Z,102552.09
2023-02-07T21:38:24.034Z,102548.66
2023-02-07T21:41:28.930Z,102552.25
2023-02-07T21:44:31.122Z,102556.91
2023-02-07T21:47:33.295Z,102557.63
2023-02-07T21:50:35.448Z,102549.34
2023-02-07T21:53:38.163Z,102554.88
2023-02-07T21:56:45.387Z,102556.06
2023-02-07T21:59:47.780Z,102557.53
2023-02-07T22:02:50.472Z,102540.69
2023-02-07T22:05:52.937Z,102551.59
2023-02-07T22:08:57.404Z,102554.47
2023-02-07T22:11:59.729Z,102555.25
2023-02-07T22:15:01.983Z,102547.44
2023-02-07T22:18:05.108Z,102547.22
2023-02-07T22:21:10.660Z,102551.28
2023-02-07T22:24:14.602Z,102544.31
2023-02-07T22:27:16.849Z,102556.78
2023-02-07T22:30:19.869Z,102542.28
2023-02-07T22:33:33.783Z,102533.06
2023-02-07T22:36:39.244Z,102547.06
2023-02-07T22:39:52.439Z,102548.88
2023-02-07T22:46:32.539Z,102545.03
2023-02-07T22:53:15.948Z,102556.06
2023-02-07T22:56:18.678Z,102538.44
2023-02-07T22:59:20.921Z,102546.09
2023-02-07T23:02:23.078Z,102557.34
2023-02-07T23:05:25.253Z,102562.59
2023-02-07T23:08:27.424Z,102556.47
2023-02-07T23:11:31.852Z,102557.19
2023-02-07T23:14:34.016Z,102550.63
2023-02-07T23:17:36.164Z,102548.44
2023-02-07T23:20:38.560Z,102546.38
2023-02-07T23:23:41.032Z,102541.75
2023-02-07T23:26:43.192Z,102548.78
2023-02-07T23:29:45.308Z,102549.41
2023-02-07T23:32:47.455Z,102539.00
2023-02-07T23:35:49.571Z,102546.34
2023-02-07T23:38:51.804Z,102533.75
2023-02-07T23:45:10.083Z,102538.03
2023-02-07T23:48:12.318Z,102546.25
2023-02-07T23:51:15.184Z,102543.09
2023-02-07T23:54:17.344Z,102551.03
2023-02-07T23:57:19.479Z,102559.88
